sensor_id;sensor_type;location;lat;lon;timestamp;P1;durP1;ratioP1;P2;durP2;ratioP2
31004;SDS011;17676;52.254;4.490;2023-07-30T00:01:13;23.00;;;2.88;;
31004;SDS011;17676;52.254;4.490;2023-07-30T00:03:39;20.55;;;2.53;;
31004;SDS011;17676;52.254;4.490;2023-07-30T00:06:04;16.70;;;2.55;;
31004;SDS011;17676;52.254;4.490;2023-07-30T00:08:30;24.70;;;3.33;;
31004;SDS011;17676;52.254;4.490;2023-07-30T00:10:58;27.27;;;3.22;;
31004;SDS011;17676;52.254;4.490;2023-07-30T00:13:24;26.10;;;2.97;;
31004;SDS011;17676;52.254;4.490;2023-07-30T00:15:50;22.67;;;3.15;;
31004;SDS011;17676;52.254;4.490;2023-07-30T00:18:18;20.05;;;2.65;;
31004;SDS011;17676;52.254;4.490;2023-07-30T00:20:44;21.58;;;3.35;;
31004;SDS011;17676;52.254;4.490;2023-07-30T00:23:09;25.45;;;2.65;;
31004;SDS011;17676;52.254;4.490;2023-07-30T00:25:35;21.70;;;2.60;;
31004;SDS011;17676;52.254;4.490;2023-07-30T00:28:00;23.38;;;3.50;;
31004;SDS011;17676;52.254;4.490;2023-07-30T00:30:26;22.30;;;3.22;;
31004;SDS011;17676;52.254;4.490;2023-07-30T00:32:51;22.90;;;2.75;;
31004;SDS011;17676;52.254;4.490;2023-07-30T00:35:17;21.10;;;2.45;;
31004;SDS011;17676;52.254;4.490;2023-07-30T00:37:42;21.67;;;2.90;;
31004;SDS011;17676;52.254;4.490;2023-07-30T00:40:08;25.25;;;3.08;;
31004;SDS011;17676;52.254;4.490;2023-07-30T00:42:33;27.55;;;3.03;;
31004;SDS011;17676;52.254;4.490;2023-07-30T00:44:59;18.02;;;2.22;;
31004;SDS011;17676;52.254;4.490;2023-07-30T00:47:24;18.95;;;2.08;;
31004;SDS011;17676;52.254;4.490;2023-07-30T00:49:51;17.92;;;1.98;;
31004;SDS011;17676;52.254;4.490;2023-07-30T00:52:17;20.15;;;2.17;;
31004;SDS011;17676;52.254;4.490;2023-07-30T00:54:45;21.13;;;2.85;;
31004;SDS011;17676;52.254;4.490;2023-07-30T00:57:11;20.00;;;2.60;;
31004;SDS011;17676;52.254;4.490;2023-07-30T00:59:37;17.95;;;2.35;;
31004;SDS011;17676;52.254;4.490;2023-07-30T01:02:02;21.60;;;3.70;;
31004;SDS011;17676;52.254;4.490;2023-07-30T01:04:29;18.20;;;1.90;;
31004;SDS011;17676;52.254;4.490;2023-07-30T01:06:55;19.27;;;2.30;;
31004;SDS011;17676;52.254;4.490;2023-07-30T01:09:21;20.02;;;2.17;;
31004;SDS011;17676;52.254;4.490;2023-07-30T01:11:46;21.55;;;2.22;;
31004;SDS011;17676;52.254;4.490;2023-07-30T01:14:13;19.60;;;1.65;;
31004;SDS011;17676;52.254;4.490;2023-07-30T01:16:40;18.48;;;1.77;;
31004;SDS011;17676;52.254;4.490;2023-07-30T01:19:06;18.38;;;1.90;;
31004;SDS011;17676;52.254;4.490;2023-07-30T01:21:35;17.00;;;1.42;;
31004;SDS011;17676;52.254;4.490;2023-07-30T01:24:01;17.95;;;2.03;;
31004;SDS011;17676;52.254;4.490;2023-07-30T01:26:30;17.40;;;2.10;;
31004;SDS011;17676;52.254;4.490;2023-07-30T01:29:00;13.60;;;1.42;;
31004;SDS011;17676;52.254;4.490;2023-07-30T01:31:28;16.80;;;2.28;;
31004;SDS011;17676;52.254;4.490;2023-07-30T01:33:57;14.00;;;2.08;;
31004;SDS011;17676;52.254;4.490;2023-07-30T01:36:24;20.05;;;2.25;;
31004;SDS011;17676;52.254;4.490;2023-07-30T01:38:52;21.60;;;1.83;;
31004;SDS011;17676;52.254;4.490;2023-07-30T01:41:18;12.95;;;1.40;;
31004;SDS011;17676;52.254;4.490;2023-07-30T01:43:43;12.30;;;1.23;;
31004;SDS011;17676;52.254;4.490;2023-07-30T01:46:09;16.95;;;2.00;;
31004;SDS011;17676;52.254;4.490;2023-07-30T01:48:34;17.05;;;1.63;;
31004;SDS011;17676;52.254;4.490;2023-07-30T01:50:59;15.85;;;1.83;;
31004;SDS011;17676;52.254;4.490;2023-07-30T01:53:25;18.95;;;1.73;;
31004;SDS011;17676;52.254;4.490;2023-07-30T01:55:50;21.00;;;1.67;;
31004;SDS011;17676;52.254;4.490;2023-07-30T01:58:18;20.42;;;1.95;;
31004;SDS011;17676;52.254;4.490;2023-07-30T02:00:44;12.15;;;1.75;;
31004;SDS011;17676;52.254;4.490;2023-07-30T02:03:10;19.45;;;2.25;;
31004;SDS011;17676;52.254;4.490;2023-07-30T02:05:35;19.40;;;1.48;;
31004;SDS011;17676;52.254;4.490;2023-07-30T02:08:01;17.98;;;1.48;;
31004;SDS011;17676;52.254;4.490;2023-07-30T02:10:26;18.98;;;1.40;;
31004;SDS011;17676;52.254;4.490;2023-07-30T02:12:52;17.67;;;2.25;;
31004;SDS011;17676;52.254;4.490;2023-07-30T02:15:17;22.50;;;1.90;;
31004;SDS011;17676;52.254;4.490;2023-07-30T02:17:43;19.88;;;1.60;;
31004;SDS011;17676;52.254;4.490;2023-07-30T02:20:08;11.95;;;1.85;;
31004;SDS011;17676;52.254;4.490;2023-07-30T02:22:34;13.95;;;0.88;;
31004;SDS011;17676;52.254;4.490;2023-07-30T02:24:59;19.58;;;1.50;;
31004;SDS011;17676;52.254;4.490;2023-07-30T02:27:25;23.75;;;2.28;;
31004;SDS011;17676;52.254;4.490;2023-07-30T02:29:50;14.38;;;1.00;;
31004;SDS011;17676;52.254;4.490;2023-07-30T02:32:16;13.88;;;1.25;;
31004;SDS011;17676;52.254;4.490;2023-07-30T02:34:41;16.70;;;1.48;;
31004;SDS011;17676;52.254;4.490;2023-07-30T02:37:07;12.32;;;1.15;;
31004;SDS011;17676;52.254;4.490;2023-07-30T02:39:32;9.50;;;0.77;;
31004;SDS011;17676;52.254;4.490;2023-07-30T02:41:58;11.15;;;1.20;;
31004;SDS011;17676;52.254;4.490;2023-07-30T02:44:23;7.55;;;0.50;;
31004;SDS011;17676;52.254;4.490;2023-07-30T02:46:48;11.88;;;0.70;;
31004;SDS011;17676;52.254;4.490;2023-07-30T02:49:14;6.40;;;1.00;;
31004;SDS011;17676;52.254;4.490;2023-07-30T02:51:39;10.02;;;0.68;;
31004;SDS011;17676;52.254;4.490;2023-07-30T02:54:05;5.95;;;0.50;;
31004;SDS011;17676;52.254;4.490;2023-07-30T02:56:32;9.65;;;0.73;;
31004;SDS011;17676;52.254;4.490;2023-07-30T02:58:58;5.63;;;0.30;;
31004;SDS011;17676;52.254;4.490;2023-07-30T03:01:24;4.97;;;0.50;;
31004;SDS011;17676;52.254;4.490;2023-07-30T03:03:49;10.35;;;0.50;;
31004;SDS011;17676;52.254;4.490;2023-07-30T03:06:15;7.95;;;0.57;;
31004;SDS011;17676;52.254;4.490;2023-07-30T03:08:42;6.97;;;0.35;;
31004;SDS011;17676;52.254;4.490;2023-07-30T03:11:08;5.50;;;0.30;;
31004;SDS011;17676;52.254;4.490;2023-07-30T03:13:33;8.45;;;0.40;;
31004;SDS011;17676;52.254;4.490;2023-07-30T03:15:58;6.10;;;1.02;;
31004;SDS011;17676;52.254;4.490;2023-07-30T03:18:24;4.22;;;0.50;;
31004;SDS011;17676;52.254;4.490;2023-07-30T03:20:49;5.22;;;0.70;;
31004;SDS011;17676;52.254;4.490;2023-07-30T03:23:15;5.25;;;0.30;;
31004;SDS011;17676;52.254;4.490;2023-07-30T03:25:40;3.63;;;0.43;;
31004;SDS011;17676;52.254;4.490;2023-07-30T03:28:05;8.52;;;0.50;;
31004;SDS011;17676;52.254;4.490;2023-07-30T03:30:31;9.52;;;0.50;;
31004;SDS011;17676;52.254;4.490;2023-07-30T03:32:56;8.27;;;0.38;;
31004;SDS011;17676;52.254;4.490;2023-07-30T03:35:22;9.13;;;0.75;;
31004;SDS011;17676;52.254;4.490;2023-07-30T03:37:47;3.65;;;0.30;;
31004;SDS011;17676;52.254;4.490;2023-07-30T03:40:12;5.90;;;0.30;;
31004;SDS011;17676;52.254;4.490;2023-07-30T03:42:38;7.60;;;0.70;;
31004;SDS011;17676;52.254;4.490;2023-07-30T03:45:04;4.75;;;0.40;;
31004;SDS011;17676;52.254;4.490;2023-07-30T03:47:29;4.68;;;0.50;;
31004;SDS011;17676;52.254;4.490;2023-07-30T03:49:55;4.88;;;0.40;;
31004;SDS011;17676;52.254;4.490;2023-07-30T03:52:20;8.55;;;0.60;;
31004;SDS011;17676;52.254;4.490;2023-07-30T03:54:46;6.38;;;0.60;;
31004;SDS011;17676;52.254;4.490;2023-07-30T03:57:11;6.28;;;0.40;;
31004;SDS011;17676;52.254;4.490;2023-07-30T03:59:37;9.48;;;0.50;;
31004;SDS011;17676;52.254;4.490;2023-07-30T04:02:02;7.25;;;0.45;;
31004;SDS011;17676;52.254;4.490;2023-07-30T04:04:29;6.93;;;0.50;;
31004;SDS011;17676;52.254;4.490;2023-07-30T04:06:54;5.18;;;0.40;;
31004;SDS011;17676;52.254;4.490;2023-07-30T04:09:20;6.25;;;0.50;;
31004;SDS011;17676;52.254;4.490;2023-07-30T04:11:45;9.40;;;0.95;;
31004;SDS011;17676;52.254;4.490;2023-07-30T04:14:11;7.10;;;0.50;;
31004;SDS011;17676;52.254;4.490;2023-07-30T04:16:36;8.80;;;0.40;;
31004;SDS011;17676;52.254;4.490;2023-07-30T04:19:02;3.22;;;0.30;;
31004;SDS011;17676;52.254;4.490;2023-07-30T04:21:27;5.35;;;0.30;;
31004;SDS011;17676;52.254;4.490;2023-07-30T04:23:53;4.93;;;0.30;;
31004;SDS011;17676;52.254;4.490;2023-07-30T04:26:18;6.57;;;0.38;;
31004;SDS011;17676;52.254;4.490;2023-07-30T04:28:43;8.32;;;0.35;;
31004;SDS011;17676;52.254;4.490;2023-07-30T04:31:09;5.85;;;0.40;;
31004;SDS011;17676;52.254;4.490;2023-07-30T04:33:34;6.20;;;0.50;;
31004;SDS011;17676;52.254;4.490;2023-07-30T04:36:00;6.90;;;0.35;;
31004;SDS011;17676;52.254;4.490;2023-07-30T04:38:25;7.38;;;0.95;;
31004;SDS011;17676;52.254;4.490;2023-07-30T04:40:51;5.22;;;0.45;;
31004;SDS011;17676;52.254;4.490;2023-07-30T04:43:16;7.55;;;0.50;;
31004;SDS011;17676;52.254;4.490;2023-07-30T04:45:42;9.20;;;0.40;;
31004;SDS011;17676;52.254;4.490;2023-07-30T04:48:08;9.90;;;0.45;;
31004;SDS011;17676;52.254;4.490;2023-07-30T04:50:33;4.97;;;0.30;;
31004;SDS011;17676;52.254;4.490;2023-07-30T04:52:59;5.07;;;0.45;;
31004;SDS011;17676;52.254;4.490;2023-07-30T04:55:25;6.18;;;0.30;;
31004;SDS011;17676;52.254;4.490;2023-07-30T04:57:50;6.22;;;0.50;;
31004;SDS011;17676;52.254;4.490;2023-07-30T05:00:16;10.48;;;0.50;;
31004;SDS011;17676;52.254;4.490;2023-07-30T05:02:41;5.78;;;0.50;;
31004;SDS011;17676;52.254;4.490;2023-07-30T05:05:07;7.45;;;0.35;;
31004;SDS011;17676;52.254;4.490;2023-07-30T05:07:33;3.83;;;0.20;;
31004;SDS011;17676;52.254;4.490;2023-07-30T05:09:58;6.65;;;0.40;;
31004;SDS011;17676;52.254;4.490;2023-07-30T05:12:23;6.70;;;0.47;;
31004;SDS011;17676;52.254;4.490;2023-07-30T05:14:49;7.32;;;0.70;;
31004;SDS011;17676;52.254;4.490;2023-07-30T05:17:14;4.32;;;0.40;;
31004;SDS011;17676;52.254;4.490;2023-07-30T05:19:40;6.15;;;0.32;;
31004;SDS011;17676;52.254;4.490;2023-07-30T05:22:05;4.30;;;0.30;;
31004;SDS011;17676;52.254;4.490;2023-07-30T05:24:32;7.25;;;0.50;;
31004;SDS011;17676;52.254;4.490;2023-07-30T05:26:59;5.25;;;0.30;;
31004;SDS011;17676;52.254;4.490;2023-07-30T05:29:24;4.50;;;0.30;;
31004;SDS011;17676;52.254;4.490;2023-07-30T05:31:50;8.02;;;0.57;;
31004;SDS011;17676;52.254;4.490;2023-07-30T05:34:15;4.38;;;0.90;;
31004;SDS011;17676;52.254;4.490;2023-07-30T05:36:40;4.10;;;0.20;;
31004;SDS011;17676;52.254;4.490;2023-07-30T05:39:06;7.03;;;0.35;;
31004;SDS011;17676;52.254;4.490;2023-07-30T05:41:31;6.32;;;0.30;;
31004;SDS011;17676;52.254;4.490;2023-07-30T05:43:57;9.57;;;0.82;;
31004;SDS011;17676;52.254;4.490;2023-07-30T05:46:22;5.65;;;0.50;;
31004;SDS011;17676;52.254;4.490;2023-07-30T05:48:47;6.10;;;0.40;;
31004;SDS011;17676;52.254;4.490;2023-07-30T05:51:13;4.00;;;0.30;;
31004;SDS011;17676;52.254;4.490;2023-07-30T05:53:38;6.75;;;0.77;;
31004;SDS011;17676;52.254;4.490;2023-07-30T05:56:04;4.65;;;0.30;;
31004;SDS011;17676;52.254;4.490;2023-07-30T05:58:29;4.75;;;0.30;;
31004;SDS011;17676;52.254;4.490;2023-07-30T06:00:55;4.70;;;0.40;;
31004;SDS011;17676;52.254;4.490;2023-07-30T06:03:21;8.27;;;0.45;;
31004;SDS011;17676;52.254;4.490;2023-07-30T06:05:47;5.03;;;0.50;;
31004;SDS011;17676;52.254;4.490;2023-07-30T06:08:12;7.70;;;0.35;;
31004;SDS011;17676;52.254;4.490;2023-07-30T06:10:37;11.93;;;0.57;;
31004;SDS011;17676;52.254;4.490;2023-07-30T06:13:03;9.90;;;0.88;;
31004;SDS011;17676;52.254;4.490;2023-07-30T06:15:30;7.10;;;0.40;;
31004;SDS011;17676;52.254;4.490;2023-07-30T06:17:56;6.03;;;0.40;;
31004;SDS011;17676;52.254;4.490;2023-07-30T06:20:22;11.10;;;0.65;;
31004;SDS011;17676;52.254;4.490;2023-07-30T06:22:47;8.80;;;1.30;;
31004;SDS011;17676;52.254;4.490;2023-07-30T06:25:13;6.43;;;0.50;;
31004;SDS011;17676;52.254;4.490;2023-07-30T06:27:38;7.95;;;0.60;;
31004;SDS011;17676;52.254;4.490;2023-07-30T06:30:04;5.47;;;0.30;;
31004;SDS011;17676;52.254;4.490;2023-07-30T06:32:30;7.65;;;0.57;;
31004;SDS011;17676;52.254;4.490;2023-07-30T06:34:55;8.77;;;0.50;;
31004;SDS011;17676;52.254;4.490;2023-07-30T06:37:20;4.57;;;0.30;;
31004;SDS011;17676;52.254;4.490;2023-07-30T06:39:46;7.38;;;0.52;;
31004;SDS011;17676;52.254;4.490;2023-07-30T06:42:11;7.68;;;0.50;;
31004;SDS011;17676;52.254;4.490;2023-07-30T06:44:37;10.45;;;0.90;;
31004;SDS011;17676;52.254;4.490;2023-07-30T06:47:02;6.22;;;0.73;;
31004;SDS011;17676;52.254;4.490;2023-07-30T06:49:28;8.80;;;0.43;;
31004;SDS011;17676;52.254;4.490;2023-07-30T06:51:53;11.10;;;0.77;;
31004;SDS011;17676;52.254;4.490;2023-07-30T06:54:19;12.23;;;0.60;;
31004;SDS011;17676;52.254;4.490;2023-07-30T06:56:45;8.30;;;0.70;;
31004;SDS011;17676;52.254;4.490;2023-07-30T06:59:11;8.73;;;1.10;;
31004;SDS011;17676;52.254;4.490;2023-07-30T07:01:36;11.07;;;0.68;;
31004;SDS011;17676;52.254;4.490;2023-07-30T07:04:01;11.27;;;0.57;;
31004;SDS011;17676;52.254;4.490;2023-07-30T07:06:27;8.70;;;0.80;;
31004;SDS011;17676;52.254;4.490;2023-07-30T07:08:52;11.35;;;0.60;;
31004;SDS011;17676;52.254;4.490;2023-07-30T07:11:18;11.88;;;0.73;;
31004;SDS011;17676;52.254;4.490;2023-07-30T07:13:44;7.07;;;0.63;;
31004;SDS011;17676;52.254;4.490;2023-07-30T07:16:09;5.28;;;0.50;;
31004;SDS011;17676;52.254;4.490;2023-07-30T07:18:34;10.77;;;1.10;;
31004;SDS011;17676;52.254;4.490;2023-07-30T07:21:00;12.00;;;0.98;;
31004;SDS011;17676;52.254;4.490;2023-07-30T07:23:25;8.18;;;0.82;;
31004;SDS011;17676;52.254;4.490;2023-07-30T07:25:51;9.98;;;0.70;;
31004;SDS011;17676;52.254;4.490;2023-07-30T07:28:17;9.98;;;0.88;;
31004;SDS011;17676;52.254;4.490;2023-07-30T07:30:46;7.10;;;0.55;;
31004;SDS011;17676;52.254;4.490;2023-07-30T07:33:13;8.20;;;1.00;;
31004;SDS011;17676;52.254;4.490;2023-07-30T07:35:39;6.30;;;0.70;;
31004;SDS011;17676;52.254;4.490;2023-07-30T07:38:05;12.95;;;1.00;;
31004;SDS011;17676;52.254;4.490;2023-07-30T07:40:35;13.73;;;1.00;;
31004;SDS011;17676;52.254;4.490;2023-07-30T07:43:01;9.55;;;1.17;;
31004;SDS011;17676;52.254;4.490;2023-07-30T07:45:27;12.35;;;0.90;;
31004;SDS011;17676;52.254;4.490;2023-07-30T07:47:52;16.35;;;1.00;;
31004;SDS011;17676;52.254;4.490;2023-07-30T07:50:17;16.00;;;1.10;;
31004;SDS011;17676;52.254;4.490;2023-07-30T07:52:43;6.63;;;0.68;;
31004;SDS011;17676;52.254;4.490;2023-07-30T07:55:08;13.50;;;0.70;;
31004;SDS011;17676;52.254;4.490;2023-07-30T07:57:34;12.43;;;1.35;;
31004;SDS011;17676;52.254;4.490;2023-07-30T07:59:59;7.70;;;0.70;;
31004;SDS011;17676;52.254;4.490;2023-07-30T08:02:25;9.98;;;0.93;;
31004;SDS011;17676;52.254;4.490;2023-07-30T08:04:50;12.85;;;1.42;;
31004;SDS011;17676;52.254;4.490;2023-07-30T08:07:16;11.50;;;0.63;;
31004;SDS011;17676;52.254;4.490;2023-07-30T08:09:42;12.30;;;1.17;;
31004;SDS011;17676;52.254;4.490;2023-07-30T08:12:07;11.63;;;0.75;;
31004;SDS011;17676;52.254;4.490;2023-07-30T08:14:33;12.13;;;0.90;;
31004;SDS011;17676;52.254;4.490;2023-07-30T08:16:58;6.03;;;1.25;;
31004;SDS011;17676;52.254;4.490;2023-07-30T08:19:27;7.68;;;0.50;;
31004;SDS011;17676;52.254;4.490;2023-07-30T08:21:55;8.07;;;0.77;;
31004;SDS011;17676;52.254;4.490;2023-07-30T08:24:22;7.45;;;0.75;;
31004;SDS011;17676;52.254;4.490;2023-07-30T08:26:47;11.05;;;0.68;;
31004;SDS011;17676;52.254;4.490;2023-07-30T08:29:13;16.95;;;0.95;;
31004;SDS011;17676;52.254;4.490;2023-07-30T08:31:38;9.32;;;0.95;;
31004;SDS011;17676;52.254;4.490;2023-07-30T08:34:04;12.23;;;1.13;;
31004;SDS011;17676;52.254;4.490;2023-07-30T08:36:29;10.77;;;0.90;;
31004;SDS011;17676;52.254;4.490;2023-07-30T08:38:55;10.88;;;0.93;;
31004;SDS011;17676;52.254;4.490;2023-07-30T08:41:20;8.20;;;0.90;;
31004;SDS011;17676;52.254;4.490;2023-07-30T08:43:46;10.60;;;0.88;;
31004;SDS011;17676;52.254;4.490;2023-07-30T08:46:15;8.98;;;1.15;;
31004;SDS011;17676;52.254;4.490;2023-07-30T08:48:42;9.43;;;0.60;;
31004;SDS011;17676;52.254;4.490;2023-07-30T08:51:07;12.18;;;0.77;;
31004;SDS011;17676;52.254;4.490;2023-07-30T08:53:33;9.48;;;0.57;;
31004;SDS011;17676;52.254;4.490;2023-07-30T08:55:59;9.95;;;1.02;;
31004;SDS011;17676;52.254;4.490;2023-07-30T08:58:26;6.07;;;0.47;;
31004;SDS011;17676;52.254;4.490;2023-07-30T09:00:53;5.07;;;0.57;;
31004;SDS011;17676;52.254;4.490;2023-07-30T09:03:20;9.38;;;0.52;;
31004;SDS011;17676;52.254;4.490;2023-07-30T09:05:50;10.02;;;0.77;;
31004;SDS011;17676;52.254;4.490;2023-07-30T09:08:16;7.70;;;0.65;;
31004;SDS011;17676;52.254;4.490;2023-07-30T09:10:42;10.05;;;0.85;;
31004;SDS011;17676;52.254;4.490;2023-07-30T09:13:08;9.23;;;0.68;;
31004;SDS011;17676;52.254;4.490;2023-07-30T09:15:37;4.68;;;0.43;;
31004;SDS011;17676;52.254;4.490;2023-07-30T09:18:06;5.55;;;0.52;;
31004;SDS011;17676;52.254;4.490;2023-07-30T09:20:37;6.82;;;0.45;;
31004;SDS011;17676;52.254;4.490;2023-07-30T09:23:06;5.65;;;0.57;;
31004;SDS011;17676;52.254;4.490;2023-07-30T09:25:32;4.28;;;0.57;;
31004;SDS011;17676;52.254;4.490;2023-07-30T09:27:58;7.07;;;0.73;;
31004;SDS011;17676;52.254;4.490;2023-07-30T09:30:24;5.03;;;0.30;;
31004;SDS011;17676;52.254;4.490;2023-07-30T09:32:51;8.45;;;1.10;;
31004;SDS011;17676;52.254;4.490;2023-07-30T09:35:18;6.25;;;0.50;;
31004;SDS011;17676;52.254;4.490;2023-07-30T09:37:43;5.15;;;0.22;;
31004;SDS011;17676;52.254;4.490;2023-07-30T09:40:10;8.23;;;1.05;;
31004;SDS011;17676;52.254;4.490;2023-07-30T09:42:44;8.32;;;0.77;;
31004;SDS011;17676;52.254;4.490;2023-07-30T09:45:23;4.60;;;0.30;;
31004;SDS011;17676;52.254;4.490;2023-07-30T09:47:50;6.60;;;0.50;;
31004;SDS011;17676;52.254;4.490;2023-07-30T09:50:17;7.68;;;0.50;;
31004;SDS011;17676;52.254;4.490;2023-07-30T09:52:42;6.55;;;0.30;;
31004;SDS011;17676;52.254;4.490;2023-07-30T09:55:08;8.75;;;0.50;;
31004;SDS011;17676;52.254;4.490;2023-07-30T09:57:34;9.43;;;0.70;;
31004;SDS011;17676;52.254;4.490;2023-07-30T10:00:01;9.30;;;0.50;;
31004;SDS011;17676;52.254;4.490;2023-07-30T10:02:28;10.65;;;0.63;;
31004;SDS011;17676;52.254;4.490;2023-07-30T10:04:59;8.55;;;0.50;;
31004;SDS011;17676;52.254;4.490;2023-07-30T10:07:26;7.72;;;0.60;;
31004;SDS011;17676;52.254;4.490;2023-07-30T10:09:55;9.60;;;0.50;;
31004;SDS011;17676;52.254;4.490;2023-07-30T10:12:28;9.05;;;0.77;;
31004;SDS011;17676;52.254;4.490;2023-07-30T10:14:56;7.88;;;0.57;;
31004;SDS011;17676;52.254;4.490;2023-07-30T10:17:22;7.00;;;0.40;;
31004;SDS011;17676;52.254;4.490;2023-07-30T10:19:48;7.57;;;0.40;;
31004;SDS011;17676;52.254;4.490;2023-07-30T10:24:55;11.23;;;1.05;;
31004;SDS011;17676;52.254;4.490;2023-07-30T10:27:35;12.98;;;0.75;;
31004;SDS011;17676;52.254;4.490;2023-07-30T10:30:14;7.75;;;0.52;;
31004;SDS011;17676;52.254;4.490;2023-07-30T10:33:02;10.15;;;0.82;;
31004;SDS011;17676;52.254;4.490;2023-07-30T10:38:18;5.15;;;0.45;;
31004;SDS011;17676;52.254;4.490;2023-07-30T10:41:09;9.93;;;0.50;;
31004;SDS011;17676;52.254;4.490;2023-07-30T10:43:41;10.30;;;0.68;;
31004;SDS011;17676;52.254;4.490;2023-07-30T10:46:09;8.48;;;0.65;;
31004;SDS011;17676;52.254;4.490;2023-07-30T10:48:36;6.70;;;0.55;;
31004;SDS011;17676;52.254;4.490;2023-07-30T10:51:07;10.95;;;0.82;;
31004;SDS011;17676;52.254;4.490;2023-07-30T10:53:34;7.30;;;0.70;;
31004;SDS011;17676;52.254;4.490;2023-07-30T10:56:02;9.93;;;0.80;;
31004;SDS011;17676;52.254;4.490;2023-07-30T10:58:29;5.63;;;0.38;;
31004;SDS011;17676;52.254;4.490;2023-07-30T11:00:56;6.68;;;0.50;;
31004;SDS011;17676;52.254;4.490;2023-07-30T11:03:25;14.15;;;0.93;;
31004;SDS011;17676;52.254;4.490;2023-07-30T11:05:54;9.45;;;0.95;;
31004;SDS011;17676;52.254;4.490;2023-07-30T11:08:36;7.72;;;0.60;;
31004;SDS011;17676;52.254;4.490;2023-07-30T11:11:03;9.43;;;0.40;;
31004;SDS011;17676;52.254;4.490;2023-07-30T11:13:34;7.30;;;0.47;;
31004;SDS011;17676;52.254;4.490;2023-07-30T11:16:05;6.53;;;0.38;;
31004;SDS011;17676;52.254;4.490;2023-07-30T11:18:32;6.93;;;1.10;;
31004;SDS011;17676;52.254;4.490;2023-07-30T11:21:17;8.65;;;0.80;;
31004;SDS011;17676;52.254;4.490;2023-07-30T11:23:44;7.43;;;0.55;;
31004;SDS011;17676;52.254;4.490;2023-07-30T11:26:19;9.20;;;0.60;;
31004;SDS011;17676;52.254;4.490;2023-07-30T11:28:45;7.95;;;0.80;;
31004;SDS011;17676;52.254;4.490;2023-07-30T11:31:12;7.20;;;0.60;;
31004;SDS011;17676;52.254;4.490;2023-07-30T11:33:41;7.57;;;0.60;;
31004;SDS011;17676;52.254;4.490;2023-07-30T11:36:19;8.15;;;0.55;;
31004;SDS011;17676;52.254;4.490;2023-07-30T11:38:49;18.45;;;1.85;;
31004;SDS011;17676;52.254;4.490;2023-07-30T11:41:18;20.65;;;2.42;;
31004;SDS011;17676;52.254;4.490;2023-07-30T11:43:44;10.00;;;0.73;;
31004;SDS011;17676;52.254;4.490;2023-07-30T11:46:11;10.70;;;0.70;;
31004;SDS011;17676;52.254;4.490;2023-07-30T11:48:38;11.10;;;0.93;;
31004;SDS011;17676;52.254;4.490;2023-07-30T11:51:05;8.02;;;0.50;;
31004;SDS011;17676;52.254;4.490;2023-07-30T11:53:44;9.68;;;0.52;;
31004;SDS011;17676;52.254;4.490;2023-07-30T11:56:17;7.57;;;0.63;;
31004;SDS011;17676;52.254;4.490;2023-07-30T11:58:47;9.15;;;0.73;;
31004;SDS011;17676;52.254;4.490;2023-07-30T12:01:17;4.68;;;0.40;;
31004;SDS011;17676;52.254;4.490;2023-07-30T12:03:43;5.13;;;0.50;;
31004;SDS011;17676;52.254;4.490;2023-07-30T12:06:09;9.95;;;0.60;;
31004;SDS011;17676;52.254;4.490;2023-07-30T12:08:35;13.25;;;0.98;;
31004;SDS011;17676;52.254;4.490;2023-07-30T12:11:07;17.83;;;1.45;;
31004;SDS011;17676;52.254;4.490;2023-07-30T12:13:34;8.88;;;0.65;;
31004;SDS011;17676;52.254;4.490;2023-07-30T12:16:08;9.10;;;0.55;;
31004;SDS011;17676;52.254;4.490;2023-07-30T12:18:34;15.63;;;0.85;;
31004;SDS011;17676;52.254;4.490;2023-07-30T12:20:59;6.97;;;0.40;;
31004;SDS011;17676;52.254;4.490;2023-07-30T12:23:25;7.25;;;0.52;;
31004;SDS011;17676;52.254;4.490;2023-07-30T12:25:53;6.68;;;0.40;;
31004;SDS011;17676;52.254;4.490;2023-07-30T12:28:18;5.88;;;0.68;;
31004;SDS011;17676;52.254;4.490;2023-07-30T12:30:43;8.52;;;0.32;;
31004;SDS011;17676;52.254;4.490;2023-07-30T12:33:09;4.85;;;0.52;;
31004;SDS011;17676;52.254;4.490;2023-07-30T12:35:34;12.50;;;0.60;;
31004;SDS011;17676;52.254;4.490;2023-07-30T12:38:00;6.07;;;0.60;;
31004;SDS011;17676;52.254;4.490;2023-07-30T12:40:25;5.88;;;0.95;;
31004;SDS011;17676;52.254;4.490;2023-07-30T12:42:51;3.97;;;0.40;;
31004;SDS011;17676;52.254;4.490;2023-07-30T12:45:17;9.50;;;0.50;;
31004;SDS011;17676;52.254;4.490;2023-07-30T12:47:43;5.18;;;0.38;;
31004;SDS011;17676;52.254;4.490;2023-07-30T12:50:10;6.97;;;0.40;;
31004;SDS011;17676;52.254;4.490;2023-07-30T12:52:35;4.40;;;0.52;;
31004;SDS011;17676;52.254;4.490;2023-07-30T12:55:01;10.13;;;0.55;;
31004;SDS011;17676;52.254;4.490;2023-07-30T12:57:29;7.97;;;0.40;;
31004;SDS011;17676;52.254;4.490;2023-07-30T12:59:55;5.30;;;0.40;;
31004;SDS011;17676;52.254;4.490;2023-07-30T13:02:20;5.55;;;0.32;;
31004;SDS011;17676;52.254;4.490;2023-07-30T13:04:45;5.05;;;0.38;;
31004;SDS011;17676;52.254;4.490;2023-07-30T13:07:11;3.78;;;0.28;;
31004;SDS011;17676;52.254;4.490;2023-07-30T13:09:36;3.70;;;0.28;;
31004;SDS011;17676;52.254;4.490;2023-07-30T13:12:02;5.85;;;0.40;;
31004;SDS011;17676;52.254;4.490;2023-07-30T13:14:27;5.20;;;0.50;;
31004;SDS011;17676;52.254;4.490;2023-07-30T13:16:54;7.05;;;0.60;;
31004;SDS011;17676;52.254;4.490;2023-07-30T13:19:19;6.97;;;0.40;;
31004;SDS011;17676;52.254;4.490;2023-07-30T13:21:44;5.72;;;0.40;;
31004;SDS011;17676;52.254;4.490;2023-07-30T13:24:10;5.28;;;0.32;;
31004;SDS011;17676;52.254;4.490;2023-07-30T13:26:35;7.38;;;0.40;;
31004;SDS011;17676;52.254;4.490;2023-07-30T13:29:01;9.18;;;0.60;;
31004;SDS011;17676;52.254;4.490;2023-07-30T13:31:26;7.30;;;0.40;;
31004;SDS011;17676;52.254;4.490;2023-07-30T13:33:52;8.23;;;0.80;;
31004;SDS011;17676;52.254;4.490;2023-07-30T13:36:17;8.70;;;0.70;;
31004;SDS011;17676;52.254;4.490;2023-07-30T13:38:43;8.25;;;0.85;;
31004;SDS011;17676;52.254;4.490;2023-07-30T13:41:08;10.60;;;1.00;;
31004;SDS011;17676;52.254;4.490;2023-07-30T13:43:34;11.63;;;1.02;;
31004;SDS011;17676;52.254;4.490;2023-07-30T13:46:00;8.73;;;0.80;;
31004;SDS011;17676;52.254;4.490;2023-07-30T13:48:25;9.65;;;1.30;;
31004;SDS011;17676;52.254;4.490;2023-07-30T13:50:51;8.15;;;0.70;;
31004;SDS011;17676;52.254;4.490;2023-07-30T13:53:17;10.98;;;0.93;;
31004;SDS011;17676;52.254;4.490;2023-07-30T13:55:42;15.85;;;1.23;;
31004;SDS011;17676;52.254;4.490;2023-07-30T13:58:08;12.23;;;1.52;;
31004;SDS011;17676;52.254;4.490;2023-07-30T14:00:33;13.10;;;1.55;;
31004;SDS011;17676;52.254;4.490;2023-07-30T14:02:59;9.73;;;1.30;;
31004;SDS011;17676;52.254;4.490;2023-07-30T14:05:24;17.52;;;2.05;;
31004;SDS011;17676;52.254;4.490;2023-07-30T14:07:50;10.48;;;1.30;;
31004;SDS011;17676;52.254;4.490;2023-07-30T14:10:18;11.77;;;1.30;;
31004;SDS011;17676;52.254;4.490;2023-07-30T14:12:44;16.42;;;2.33;;
31004;SDS011;17676;52.254;4.490;2023-07-30T14:15:09;13.98;;;1.50;;
31004;SDS011;17676;52.254;4.490;2023-07-30T14:17:35;16.45;;;2.88;;
31004;SDS011;17676;52.254;4.490;2023-07-30T14:20:00;14.82;;;1.63;;
31004;SDS011;17676;52.254;4.490;2023-07-30T14:22:26;14.57;;;1.90;;
31004;SDS011;17676;52.254;4.490;2023-07-30T14:24:51;19.30;;;2.92;;
31004;SDS011;17676;52.254;4.490;2023-07-30T14:27:17;17.63;;;1.60;;
31004;SDS011;17676;52.254;4.490;2023-07-30T14:29:42;10.20;;;1.67;;
31004;SDS011;17676;52.254;4.490;2023-07-30T14:32:08;16.83;;;2.17;;
31004;SDS011;17676;52.254;4.490;2023-07-30T14:34:33;9.40;;;1.65;;
31004;SDS011;17676;52.254;4.490;2023-07-30T14:36:59;11.93;;;1.33;;
31004;SDS011;17676;52.254;4.490;2023-07-30T14:39:24;14.25;;;1.85;;
31004;SDS011;17676;52.254;4.490;2023-07-30T14:41:50;24.45;;;2.60;;
31004;SDS011;17676;52.254;4.490;2023-07-30T14:44:15;17.85;;;2.30;;